Time;durP1;ratioP1;P1;durP2;ratioP2;P2;SDS_P1;SDS_P2;PMS_P1;PMS_P2;Temp;Humidity;BMP_temperature;BMP_pressure;BME280_temperature;BME280_humidity;BME280_pressure;Samples;Min_cycle;Max_cycle;Signal;HPM_P1;HPM_P2
2023/10/01 00:02:21;;;;;;;;;;;;;;;19.66;59.89;100576.59;10329460;28;893;-72
2023/10/01 00:07:17;;;;;;;;;;;;;;;19.66;59.90;100588.94;10330544;28;920;-72
2023/10/01 00:12:13;;;;;;;;;;;;;;;19.65;59.83;100571.34;10329711;28;905;-72
2023/10/01 00:17:09;;;;;;;;;;;;;;;19.64;59.92;100574.88;10329479;28;1905;-72
2023/10/01 00:22:05;;;;;;;;;;;;;;;19.64;59.98;100567.81;10329412;28;947;-72
2023/10/01 00:27:01;;;;;;;;;;;;;;;19.61;59.86;100570.56;10329222;28;905;-72
2023/10/01 00:31:57;;;;;;;;;;;;;;;19.59;59.96;100559.19;10329324;28;1224;-72
2023/10/01 00:36:52;;;;;;;;;;;;;;;19.61;59.95;100561.78;10329028;28;1913;-72
2023/10/01 00:41:48;;;;;;;;;;;;;;;19.59;59.93;100545.97;10329197;28;874;-72
2023/10/01 00:46:44;;;;;;;;;;;;;;;19.58;59.90;100560.13;10328413;28;877;-72
2023/10/01 00:51:43;;;;;;;;;;;;;;;19.56;60.06;100548.72;10328186;28;901;-72
2023/10/01 00:56:42;;;;;;;;;;;;;;;19.56;60.12;100547.88;10327870;28;1883;-72
2023/10/01 01:01:41;;;;;;;;;;;;;;;19.55;60.07;100539.09;10328223;28;898;-71
2023/10/01 01:06:39;;;;;;;;;;;;;;;19.54;60.02;100544.41;10327955;28;821;-71
2023/10/01 01:11:35;;;;;;;;;;;;;;;19.54;60.15;100533.84;10328064;28;849;-72
2023/10/01 01:16:31;;;;;;;;;;;;;;;19.54;60.13;100533.84;10327505;28;1898;-72
2023/10/01 01:21:26;;;;;;;;;;;;;;;19.53;60.07;100535.63;10328181;28;869;-72
2023/10/01 01:26:23;;;;;;;;;;;;;;;19.52;60.18;100544.50;10327384;28;960;-71
2023/10/01 01:31:18;;;;;;;;;;;;;;;19.51;60.18;100548.03;10326748;28;1117;-72
2023/10/01 01:36:17;;;;;;;;;;;;;;;19.51;60.18;100541.91;10327010;28;1953;-72
2023/10/01 01:41:12;;;;;;;;;;;;;;;19.49;60.06;100537.53;10326508;28;832;-72
2023/10/01 01:46:09;;;;;;;;;;;;;;;19.49;60.18;100541.94;10326784;28;790;-72
2023/10/01 01:51:06;;;;;;;;;;;;;;;19.48;60.21;100541.09;10326196;28;1003;-72
2023/10/01 01:56:08;;;;;;;;;;;;;;;19.47;60.07;100527.94;10326855;28;1902;-72
2023/10/01 02:06:08;;;;;;;;;;;;;;;19.46;60.23;100500.63;10325717;28;908;-72
2023/10/01 02:11:09;;;;;;;;;;;;;;;19.46;60.28;100497.97;10325613;28;853;-72
2023/10/01 02:16:18;;;;;;;;;;;;;;;19.45;60.35;100498.03;10325713;28;1902;-72
2023/10/01 02:21:17;;;;;;;;;;;;;;;19.47;60.25;100517.38;10325448;28;1041;-72
2023/10/01 02:26:13;;;;;;;;;;;;;;;19.44;60.24;100498.94;10326746;28;812;-73
2023/10/01 02:31:09;;;;;;;;;;;;;;;19.42;60.29;100501.66;10334112;28;1177;-71
2023/10/01 02:36:12;;;;;;;;;;;;;;;19.43;60.31;100500.75;10334015;28;1976;-72
2023/10/01 02:41:08;;;;;;;;;;;;;;;19.42;60.24;100500.81;10333505;28;967;-72
2023/10/01 02:46:07;;;;;;;;;;;;;;;19.41;60.18;100505.25;10333044;28;882;-72
2023/10/01 02:51:15;;;;;;;;;;;;;;;19.41;60.35;100502.59;10333821;28;770;-72
2023/10/01 02:56:16;;;;;;;;;;;;;;;19.40;60.36;100492.06;10333214;28;1897;-73
2023/10/01 03:01:13;;;;;;;;;;;;;;;19.39;60.34;100495.66;10332487;28;862;-72
2023/10/01 03:06:09;;;;;;;;;;;;;;;19.39;60.36;100491.22;10332226;28;837;-72
2023/10/01 03:11:05;;;;;;;;;;;;;;;19.38;60.28;100496.53;10332716;28;853;-72
2023/10/01 03:21:19;;;;;;;;;;;;;;;19.36;60.29;100493.09;10332040;28;675;-72
2023/10/01 03:26:17;;;;;;;;;;;;;;;19.35;60.36;100501.97;10332074;28;842;-72
2023/10/01 03:31:13;;;;;;;;;;;;;;;19.34;60.32;100513.47;10331195;28;1305;-72
2023/10/01 03:36:11;;;;;;;;;;;;;;;19.33;60.37;100512.56;10331702;28;1921;-72
2023/10/01 03:41:08;;;;;;;;;;;;;;;19.32;60.26;100515.28;10331420;28;833;-72
2023/10/01 03:46:07;;;;;;;;;;;;;;;19.31;60.41;100518.84;10331415;28;824;-72
2023/10/01 03:51:04;;;;;;;;;;;;;;;19.31;60.27;100510.91;10330601;28;833;-72
2023/10/01 03:56:02;;;;;;;;;;;;;;;19.29;60.34;100513.63;10331084;28;1902;-72
2023/10/01 04:01:15;;;;;;;;;;;;;;;19.29;60.55;100507.50;10330586;28;782;-73
2023/10/01 04:06:12;;;;;;;;;;;;;;;19.27;60.25;100500.47;10330697;28;863;-73
2023/10/01 04:11:11;;;;;;;;;;;;;;;19.27;60.32;100504.88;10330085;28;862;-72
2023/10/01 04:16:15;;;;;;;;;;;;;;;19.23;60.37;100505.91;10329795;28;1898;-72
2023/10/01 04:26:06;;;;;;;;;;;;;;;19.37;59.93;100497.47;10328691;28;908;-72
2023/10/01 04:31:09;;;;;;;;;;;;;;;19.41;59.93;100494.66;10311232;28;1356;-72
2023/10/01 04:36:10;;;;;;;;;;;;;;;19.45;59.88;100490.13;10329078;28;1981;-72
2023/10/01 04:41:10;;;;;;;;;;;;;;;19.46;59.83;100483.91;10328698;28;878;-72
2023/10/01 04:46:08;;;;;;;;;;;;;;;19.49;59.71;100489.94;10329197;28;851;-72
2023/10/01 04:51:07;;;;;;;;;;;;;;;19.54;59.71;100496.81;10327574;28;813;-72
2023/10/01 04:56:06;;;;;;;;;;;;;;;19.56;59.51;100502.91;10329080;28;1897;-72
2023/10/01 05:01:01;;;;;;;;;;;;;;;19.57;59.62;100510.81;10327844;28;821;-73
2023/10/01 05:05:57;;;;;;;;;;;;;;;19.61;59.60;100516.84;10327967;28;909;-72
2023/10/01 05:10:56;;;;;;;;;;;;;;;19.62;59.44;100513.25;10327989;28;853;-72
2023/10/01 05:15:58;;;;;;;;;;;;;;;19.63;59.38;100512.34;10327160;28;1969;-73
2023/10/01 05:20:58;;;;;;;;;;;;;;;19.63;59.64;100512.34;10327809;28;898;-72
2023/10/01 05:25:56;;;;;;;;;;;;;;;19.61;59.52;100509.75;10326877;28;795;-72
2023/10/01 05:30:57;;;;;;;;;;;;;;;19.62;59.47;100511.50;10326354;28;1393;-72
2023/10/01 05:35:57;;;;;;;;;;;;;;;19.64;59.50;100525.50;10327288;28;1909;-72
2023/10/01 05:40:55;;;;;;;;;;;;;;;19.64;59.37;100514.91;10326520;28;936;-72
2023/10/01 05:45:52;;;;;;;;;;;;;;;19.65;59.39;100515.81;10326667;28;1034;-72
2023/10/01 05:50:49;;;;;;;;;;;;;;;19.66;59.54;100525.44;10326697;28;842;-75
2023/10/01 05:55:44;;;;;;;;;;;;;;;19.64;59.52;100522.00;10325893;28;1914;-72
2023/10/01 06:00:45;;;;;;;;;;;;;;;19.64;59.44;100525.50;10326025;28;783;-72
2023/10/01 06:05:49;;;;;;;;;;;;;;;19.64;59.44;100514.06;10325670;28;977;-73
2023/10/01 06:10:46;;;;;;;;;;;;;;;19.69;59.50;100515.63;10325654;28;878;-72
2023/10/01 06:15:42;;;;;;;;;;;;;;;19.74;59.48;100523.41;10325941;28;1897;-72
2023/10/01 06:20:38;;;;;;;;;;;;;;;19.76;59.24;100523.34;10325328;28;878;-72
2023/10/01 06:25:40;;;;;;;;;;;;;;;19.76;59.29;100524.22;10325309;28;874;-73
2023/10/01 06:30:39;;;;;;;;;;;;;;;19.78;59.20;100517.06;10325109;28;1176;-72
2023/10/01 06:35:35;;;;;;;;;;;;;;;19.76;59.40;100524.22;10326172;28;1922;-72
2023/10/01 06:40:31;;;;;;;;;;;;;;;19.79;59.26;100524.09;10325862;28;813;-75
2023/10/01 06:45:39;;;;;;;;;;;;;;;19.81;59.19;100527.53;10325488;28;902;-73
2023/10/01 06:50:35;;;;;;;;;;;;;;;19.84;59.04;100522.13;10324750;28;941;-72
2023/10/01 06:55:32;;;;;;;;;;;;;;;19.84;59.17;100519.47;10325379;28;1902;-74
2023/10/01 07:00:33;;;;;;;;;;;;;;;19.82;59.22;100523.97;10325058;28;885;-72
2023/10/01 07:05:29;;;;;;;;;;;;;;;19.84;59.24;100519.47;10324747;28;869;-73
2023/10/01 07:10:26;;;;;;;;;;;;;;;19.87;59.08;100526.44;10323204;28;1130;-73
2023/10/01 07:15:25;;;;;;;;;;;;;;;19.86;59.21;100522.94;10328922;28;1902;-73
2023/10/01 07:20:24;;;;;;;;;;;;;;;19.85;59.30;100539.69;10331368;28;879;-72
2023/10/01 07:30:45;;;;;;;;;;;;;;;19.85;59.11;100534.41;10308933;28;1637;-72
2023/10/01 07:35:44;;;;;;;;;;;;;;;19.87;58.93;100529.94;10292186;28;1972;-72
2023/10/01 07:40:58;;;;;;;;;;;;;;;19.88;59.20;100536.94;10290148;28;854;-73
2023/10/01 07:45:58;;;;;;;;;;;;;;;19.90;58.86;100523.66;10290683;28;1059;-72
2023/10/01 07:50:55;;;;;;;;;;;;;;;19.91;59.01;100538.59;10289659;28;866;-72
2023/10/01 07:55:51;;;;;;;;;;;;;;;19.88;58.93;100536.94;10290002;28;1957;-73
2023/10/01 08:00:48;;;;;;;;;;;;;;;19.89;58.76;100536.03;10290017;28;762;-73
2023/10/01 08:05:47;;;;;;;;;;;;;;;19.93;58.74;100537.59;10289181;28;894;-72
2023/10/01 08:10:44;;;;;;;;;;;;;;;19.94;58.88;100543.78;10289430;28;849;-72
2023/10/01 08:15:42;;;;;;;;;;;;;;;19.93;59.14;100539.41;10323836;28;1890;-73
2023/10/01 08:20:44;;;;;;;;;;;;;;;19.96;59.48;100546.34;10329794;28;827;-72
2023/10/01 08:25:42;;;;;;;;;;;;;;;19.93;58.86;100552.63;10327958;28;902;-73
2023/10/01 08:30:43;;;;;;;;;;;;;;;19.92;59.18;100551.78;10329538;28;1322;-72
2023/10/01 08:35:39;;;;;;;;;;;;;;;19.92;59.05;100542.97;10328652;28;1969;-75
2023/10/01 08:40:41;;;;;;;;;;;;;;;19.95;59.42;100536.72;10329086;28;846;-73
2023/10/01 08:45:42;;;;;;;;;;;;;;;19.96;59.11;100541.06;10329270;28;841;-73
2023/10/01 08:50:40;;;;;;;;;;;;;;;19.96;58.79;100538.41;10328979;28;860;-74
2023/10/01 08:55:39;;;;;;;;;;;;;;;19.94;58.89;100538.50;10327842;28;1957;-73
2023/10/01 09:00:35;;;;;;;;;;;;;;;19.95;59.06;100542.00;10328522;28;878;-73
2023/10/01 09:05:32;;;;;;;;;;;;;;;19.95;59.07;100556.09;10327471;28;850;-73
2023/10/01 09:10:38;;;;;;;;;;;;;;;19.97;59.06;100558.69;10327327;28;890;-73
2023/10/01 09:15:38;;;;;;;;;;;;;;;19.96;58.98;100552.50;10327015;28;1953;-73
2023/10/01 09:20:34;;;;;;;;;;;;;;;19.95;58.96;100545.50;10327509;28;941;-73
2023/10/01 09:25:33;;;;;;;;;;;;;;;19.94;59.00;100557.03;10326169;28;940;-72
2023/10/01 09:30:34;;;;;;;;;;;;;;;19.91;59.10;100555.34;10326255;28;1014;-73
2023/10/01 09:35:30;;;;;;;;;;;;;;;19.90;58.88;100556.25;10326010;28;1969;-73
2023/10/01 09:40:32;;;;;;;;;;;;;;;19.88;59.46;100550.16;10326309;28;932;-73
2023/10/01 09:45:28;;;;;;;;;;;;;;;19.87;59.13;100551.09;10326031;28;858;-70
2023/10/01 09:50:24;;;;;;;;;;;;;;;19.82;59.40;100539.81;10325726;28;940;-70
2023/10/01 09:55:26;;;;;;;;;;;;;;;19.80;59.27;100546.94;10325609;28;1893;-70
2023/10/01 10:00:39;;;;;;;;;;;;;;;19.79;59.33;100529.38;10326501;28;888;-70
2023/10/01 10:05:35;;;;;;;;;;;;;;;19.77;59.36;100515.34;10326425;28;797;-69
2023/10/01 10:10:31;;;;;;;;;;;;;;;19.76;59.16;100516.28;10326225;28;818;-70
2023/10/01 10:15:27;;;;;;;;;;;;;;;19.74;59.18;100510.16;10325775;28;1951;-69
2023/10/01 10:20:25;;;;;;;;;;;;;;;19.73;59.40;100505.81;10325944;28;944;-70
2023/10/01 10:25:25;;;;;;;;;;;;;;;19.73;59.32;100497.88;10325937;28;916;-70
2023/10/01 10:30:21;;;;;;;;;;;;;;;19.73;59.40;100507.56;10325525;28;1217;-70
2023/10/01 10:35:17;;;;;;;;;;;;;;;19.73;59.20;100507.56;10324978;28;1963;-70
2023/10/01 10:40:22;;;;;;;;;;;;;;;19.72;59.40;100504.06;10324804;28;758;-71
2023/10/01 10:45:21;;;;;;;;;;;;;;;19.73;59.10;100497.00;10325561;28;786;-70
2023/10/01 10:50:17;;;;;;;;;;;;;;;19.72;59.05;100495.28;10331020;28;881;-69
2023/10/01 10:55:16;;;;;;;;;;;;;;;19.73;59.19;100497.00;10333186;28;1960;-70
2023/10/01 11:00:23;;;;;;;;;;;;;;;19.77;58.78;100495.97;10333038;28;839;-70
2023/10/01 11:05:20;;;;;;;;;;;;;;;19.79;58.87;100497.63;10332864;28;882;-70
2023/10/01 11:10:16;;;;;;;;;;;;;;;19.80;59.05;100503.78;10331960;28;887;-69
2023/10/01 11:15:23;;;;;;;;;;;;;;;19.78;58.90;100495.91;10332312;28;1958;-70
2023/10/01 11:20:25;;;;;;;;;;;;;;;19.76;59.14;100497.75;10331522;28;954;-70
2023/10/01 11:25:22;;;;;;;;;;;;;;;19.76;59.20;100505.69;10331464;28;862;-70
2023/10/01 11:30:20;;;;;;;;;;;;;;;19.75;59.11;100490.72;10331651;28;1394;-70
2023/10/01 11:35:16;;;;;;;;;;;;;;;19.76;59.00;100492.47;10331370;28;1914;-70
2023/10/01 11:40:14;;;;;;;;;;;;;;;19.77;58.95;100493.31;10331504;28;910;-70
2023/10/01 11:45:12;;;;;;;;;;;;;;;19.77;59.03;100488.03;10330698;28;886;-72
2023/10/01 11:50:08;;;;;;;;;;;;;;;19.79;59.17;100481.75;10330917;28;942;-70
2023/10/01 11:55:19;;;;;;;;;;;;;;;19.77;59.03;100486.22;10330937;28;1964;-70
2023/10/01 12:00:19;;;;;;;;;;;;;;;19.78;59.04;100484.44;10330819;28;871;-70
2023/10/01 12:05:16;;;;;;;;;;;;;;;19.75;59.33;100474.00;10330579;28;857;-69
2023/10/01 12:15:40;;;;;;;;;;;;;;;19.79;59.04;100462.38;10328919;28;1898;-70
2023/10/01 12:20:39;;;;;;;;;;;;;;;19.78;59.19;100452.72;10329315;28;834;-70
2023/10/01 12:26:36;;;;;;;;;;;;;;;19.82;58.98;100444.59;10330136;28;858;-70
2023/10/01 12:31:09;;;;;;;;;;;;;;;19.86;59.19;100430.31;10319750;28;1613;-70
2023/10/01 12:36:11;;;;;;;;;;;;;;;19.90;59.11;100421.31;10329340;28;1914;-70
2023/10/01 12:41:07;;;;;;;;;;;;;;;19.92;58.98;100413.34;10328761;28;791;-70
2023/10/01 12:46:04;;;;;;;;;;;;;;;19.98;58.73;100412.22;10328304;28;970;-70
2023/10/01 12:51:00;;;;;;;;;;;;;;;19.99;58.76;100413.91;10328472;28;865;-70
2023/10/01 12:55:56;;;;;;;;;;;;;;;20.05;58.49;100411.03;10328272;28;1933;-70
2023/10/01 13:00:53;;;;;;;;;;;;;;;20.14;58.37;100408.00;10327769;28;897;-70
2023/10/01 13:05:51;;;;;;;;;;;;;;;20.19;58.18;100406.00;10328470;28;875;-70
2023/10/01 13:10:50;;;;;;;;;;;;;;;20.24;58.18;100406.66;10327185;28;814;-69
2023/10/01 13:15:51;;;;;;;;;;;;;;;20.42;57.75;100401.50;10327085;28;1959;-70
2023/10/01 13:25:47;;;;;;;;;;;;;;;20.65;57.34;100411.13;10327691;28;889;-69
2023/10/01 13:31:03;;;;;;;;;;;;;;;20.76;57.24;100411.50;10326890;28;1158;-70
2023/10/01 13:36:12;;;;;;;;;;;;;;;20.77;57.38;100394.66;10326214;28;1910;-69
2023/10/01 14:17:32;;;;;;;;;;;;;;;20.90;57.36;100360.50;10326403;28;1874;-70
2023/10/01 14:22:29;;;;;;;;;;;;;;;21.04;57.30;100354.56;10325399;28;778;-70
2023/10/01 14:27:26;;;;;;;;;;;;;;;20.89;57.79;100353.50;10326102;28;830;-70
2023/10/01 14:32:33;;;;;;;;;;;;;;;20.71;58.08;100355.22;10325620;28;1093;-69
2023/10/01 14:37:32;;;;;;;;;;;;;;;20.59;58.30;100346.03;10325116;28;1909;-70
2023/10/01 14:42:36;;;;;;;;;;;;;;;20.55;58.55;100341.81;10325083;28;885;-69
2023/10/01 14:47:34;;;;;;;;;;;;;;;20.55;58.40;100334.72;10325562;28;905;-70
2023/10/01 14:52:30;;;;;;;;;;;;;;;20.64;58.21;100345.81;10324794;28;854;-70
2023/10/01 14:57:26;;;;;;;;;;;;;;;20.83;57.91;100343.19;10324679;28;1897;-69
2023/10/01 15:02:22;;;;;;;;;;;;;;;20.78;58.28;100340.75;10324803;28;920;-69
2023/10/01 15:07:21;;;;;;;;;;;;;;;20.86;57.86;100335.97;10324622;28;758;-69
2023/10/01 15:12:26;;;;;;;;;;;;;;;20.89;57.92;100341.13;10324382;28;1053;-70
2023/10/01 15:17:22;;;;;;;;;;;;;;;21.11;57.17;100338.28;10324465;28;1897;-72
2023/10/01 15:22:18;;;;;;;;;;;;;;;21.16;57.40;100332.78;10323679;28;1052;-72
2023/10/01 15:27:23;;;;;;;;;;;;;;;21.00;57.68;100330.84;10324221;28;875;-72
2023/10/01 15:32:19;;;;;;;;;;;;;;;20.85;58.21;100330.72;10324401;28;1297;-72
2023/10/01 15:37:15;;;;;;;;;;;;;;;20.73;58.41;100327.72;10330650;28;1972;-72
2023/10/01 15:42:11;;;;;;;;;;;;;;;20.68;58.65;100327.06;10330561;28;1198;-72
2023/10/01 15:47:07;;;;;;;;;;;;;;;20.69;58.49;100325.28;10330917;28;887;-70
2023/10/01 15:52:10;;;;;;;;;;;;;;;20.61;58.72;100307.09;10331403;28;950;-70
2023/10/01 15:57:06;;;;;;;;;;;;;;;20.57;58.96;100305.53;10330567;28;1897;-70
2023/10/01 16:02:06;;;;;;;;;;;;;;;20.55;58.82;100307.38;10331166;28;818;-70
2023/10/01 16:07:02;;;;;;;;;;;;;;;20.54;58.67;100301.22;10330218;28;884;-70
2023/10/01 16:11:58;;;;;;;;;;;;;;;20.55;58.94;100302.09;10330003;28;992;-70
2023/10/01 16:16:54;;;;;;;;;;;;;;;20.55;59.00;100299.44;10329468;28;1901;-70
2023/10/01 16:21:54;;;;;;;;;;;;;;;20.52;59.17;100296.91;10329137;28;849;-69
2023/10/01 16:26:50;;;;;;;;;;;;;;;20.51;59.24;100297.81;10329438;28;876;-69
2023/10/01 16:31:47;;;;;;;;;;;;;;;20.49;59.29;100297.91;10329296;28;1202;-69
2023/10/01 16:36:43;;;;;;;;;;;;;;;20.48;59.14;100295.31;10328381;28;1923;-69
2023/10/01 16:41:41;;;;;;;;;;;;;;;20.48;59.10;100300.59;10328920;28;885;-70
2023/10/01 16:46:37;;;;;;;;;;;;;;;20.46;59.30;100300.69;10327562;28;909;-69
2023/10/01 16:51:36;;;;;;;;;;;;;;;20.46;59.17;100295.41;10328415;28;1093;-70
2023/10/01 16:56:31;;;;;;;;;;;;;;;20.45;59.32;100285.72;10328827;28;1894;-69
2023/10/01 17:01:29;;;;;;;;;;;;;;;20.44;59.26;100285.81;10327511;28;921;-69
2023/10/01 17:06:25;;;;;;;;;;;;;;;20.43;59.25;100287.56;10328466;28;926;-69
2023/10/01 17:11:21;;;;;;;;;;;;;;;20.44;59.31;100284.00;10327904;28;822;-70
2023/10/01 17:16:17;;;;;;;;;;;;;;;20.44;59.33;100288.44;10327334;28;1961;-69
2023/10/01 17:21:14;;;;;;;;;;;;;;;20.43;59.45;100281.41;10327271;28;873;-70
2023/10/01 17:26:10;;;;;;;;;;;;;;;20.42;59.34;100283.22;10327694;28;830;-69
2023/10/01 17:31:07;;;;;;;;;;;;;;;20.43;59.45;100300.81;10326891;28;1327;-69
2023/10/01 17:36:08;;;;;;;;;;;;;;;20.42;59.51;100290.31;10327561;28;1922;-69
2023/10/01 17:41:18;;;;;;;;;;;;;;;20.41;59.46;100293.88;10326421;28;878;-69
2023/10/01 17:46:15;;;;;;;;;;;;;;;20.41;59.45;100293.88;10326633;28;876;-69
2023/10/01 17:51:13;;;;;;;;;;;;;;;20.41;59.34;100286.81;10326977;28;845;-69
2023/10/01 17:56:20;;;;;;;;;;;;;;;20.41;59.29;100280.63;10325672;28;1893;-69
2023/10/01 18:01:16;;;;;;;;;;;;;;;20.41;59.36;100284.16;10325932;28;859;-70
2023/10/01 18:06:12;;;;;;;;;;;;;;;20.41;59.42;100284.16;10325518;28;1327;-69
2023/10/01 18:11:11;;;;;;;;;;;;;;;20.42;59.44;100290.31;10325932;28;822;-69
2023/10/01 18:16:08;;;;;;;;;;;;;;;20.43;59.39;100292.00;10325703;28;1898;-69
2023/10/01 18:21:11;;;;;;;;;;;;;;;20.41;59.48;100301.81;10326303;28;854;-69
2023/10/01 18:26:07;;;;;;;;;;;;;;;20.40;59.56;100305.41;10326019;28;826;-69
2023/10/01 18:31:04;;;;;;;;;;;;;;;20.41;59.45;100307.97;10325751;28;1368;-69
2023/10/01 18:36:02;;;;;;;;;;;;;;;20.41;59.49;100307.09;10325692;28;1906;-69
2023/10/01 18:40:58;;;;;;;;;;;;;;;20.42;59.38;100308.84;10325038;28;870;-70
2023/10/01 18:45:58;;;;;;;;;;;;;;;20.42;59.51;100303.53;10324395;28;1230;-69
2023/10/01 18:50:56;;;;;;;;;;;;;;;20.42;59.42;100300.91;10325184;28;930;-69
2023/10/01 18:55:54;;;;;;;;;;;;;;;20.43;59.34;100302.59;10324731;28;1893;-69
2023/10/01 19:00:54;;;;;;;;;;;;;;;20.49;59.34;100302.34;10324723;28;898;-70
2023/10/01 19:05:58;;;;;;;;;;;;;;;20.44;59.45;100294.59;10324612;28;884;-70
2023/10/01 19:10:54;;;;;;;;;;;;;;;20.43;59.43;100286.72;10329612;28;858;-69
2023/10/01 19:15:50;;;;;;;;;;;;;;;20.43;59.41;100284.06;10332898;28;1889;-69
2023/10/01 19:20:46;;;;;;;;;;;;;;;20.43;59.45;100287.56;10332058;28;916;-70
2023/10/01 19:25:42;;;;;;;;;;;;;;;20.43;59.39;100282.28;10331875;28;807;-69
2023/10/01 19:30:38;;;;;;;;;;;;;;;20.44;59.33;100280.50;10331452;28;1246;-70
2023/10/01 19:35:34;;;;;;;;;;;;;;;20.44;59.47;100283.16;10331224;28;1972;-70
2023/10/01 19:40:33;;;;;;;;;;;;;;;20.44;59.47;100275.22;10331238;28;882;-69
2023/10/01 19:45:31;;;;;;;;;;;;;;;20.44;59.44;100267.28;10331631;28;920;-70
2023/10/01 19:50:27;;;;;;;;;;;;;;;20.44;59.47;100269.91;10330877;28;973;-69
2023/10/01 19:55:24;;;;;;;;;;;;;;;20.42;59.25;100274.41;10330757;28;1894;-69
2023/10/01 20:00:20;;;;;;;;;;;;;;;20.42;59.39;100285.84;10331133;28;980;-70
2023/10/01 20:05:16;;;;;;;;;;;;;;;20.41;59.35;100288.56;10331385;28;829;-69
2023/10/01 20:10:12;;;;;;;;;;;;;;;20.41;59.41;100284.16;10330143;28;1004;-70
2023/10/01 20:15:20;;;;;;;;;;;;;;;20.41;59.43;100281.50;10330341;28;1894;-69
2023/10/01 20:20:17;;;;;;;;;;;;;;;20.39;59.43;100275.41;10330625;28;814;-69
2023/10/01 20:25:12;;;;;;;;;;;;;;;20.39;59.48;100274.56;10330173;28;786;-70
2023/10/01 20:30:08;;;;;;;;;;;;;;;20.38;59.49;100270.19;10330045;28;826;-69
2023/10/01 20:35:04;;;;;;;;;;;;;;;20.38;59.49;100267.53;10330161;28;1902;-69
2023/10/01 20:40:09;;;;;;;;;;;;;;;20.36;59.58;100244.63;10329649;28;960;-69
2023/10/01 20:45:06;;;;;;;;;;;;;;;20.35;59.56;100253.50;10329087;28;836;-69
2023/10/01 20:50:03;;;;;;;;;;;;;;;20.36;59.46;100251.72;10328689;28;782;-70
2023/10/01 20:55:14;;;;;;;;;;;;;;;20.35;59.57;100247.34;10328396;28;1959;-69
2023/10/01 21:00:22;;;;;;;;;;;;;;;20.34;59.58;100246.50;10328889;28;851;-69
2023/10/01 21:05:18;;;;;;;;;;;;;;;20.33;59.57;100250.09;10328008;28;861;-69
2023/10/01 21:10:17;;;;;;;;;;;;;;;20.34;59.58;100251.78;10327795;28;962;-69
2023/10/01 21:15:20;;;;;;;;;;;;;;;20.33;59.73;100255.38;10328077;28;1959;-69
2023/10/01 21:20:22;;;;;;;;;;;;;;;20.32;59.49;100253.63;10327611;28;854;-69
2023/10/01 21:25:23;;;;;;;;;;;;;;;20.32;59.61;100253.63;10327174;28;858;-69
2023/10/01 21:30:19;;;;;;;;;;;;;;;20.32;59.61;100247.50;10326733;28;1699;-69
2023/10/01 21:35:15;;;;;;;;;;;;;;;20.31;59.62;100251.94;10326382;28;1906;-69
2023/10/01 21:40:17;;;;;;;;;;;;;;;20.31;59.77;100253.72;10327584;28;830;-69
2023/10/01 21:45:19;;;;;;;;;;;;;;;20.30;59.76;100252.88;10327418;28;861;-70
2023/10/01 21:50:15;;;;;;;;;;;;;;;20.29;59.69;100253.78;10326303;28;871;-69
2023/10/01 21:55:12;;;;;;;;;;;;;;;20.29;59.74;100264.38;10326101;28;1955;-69
2023/10/01 22:05:32;;;;;;;;;;;;;;;20.29;59.68;100268.81;10306194;28;1658;-69
2023/10/01 22:10:28;;;;;;;;;;;;;;;20.27;59.56;100266.22;10325880;28;834;-69
2023/10/01 22:15:27;;;;;;;;;;;;;;;20.27;59.51;100266.22;10325084;28;1939;-69
2023/10/01 22:20:28;;;;;;;;;;;;;;;20.28;59.69;100267.13;10326105;28;853;-69
2023/10/01 22:25:24;;;;;;;;;;;;;;;20.27;59.66;100263.59;10325389;28;953;-69
2023/10/01 22:30:21;;;;;;;;;;;;;;;20.26;59.53;100263.66;10324496;28;1133;-69
2023/10/01 22:35:19;;;;;;;;;;;;;;;20.25;59.64;100251.34;10325914;28;1926;-69
2023/10/01 22:40:15;;;;;;;;;;;;;;;20.26;59.51;100253.06;10325736;28;917;-69
2023/10/01 22:45:33;;;;;;;;;;;;;;;20.25;59.48;100256.63;10329273;28;802;-69
2023/10/01 22:50:30;;;;;;;;;;;;;;;20.25;59.55;100267.22;10333366;28;849;-69
2023/10/01 22:55:26;;;;;;;;;;;;;;;20.25;59.60;100257.53;10332364;28;1952;-70
2023/10/01 23:00:22;;;;;;;;;;;;;;;20.24;59.61;100255.78;10333033;28;1114;-69
2023/10/01 23:05:18;;;;;;;;;;;;;;;20.23;59.50;100248.78;10333312;28;794;-70
2023/10/01 23:10:24;;;;;;;;;;;;;;;20.23;59.54;100258.53;10332901;28;1628;-69
2023/10/01 23:15:21;;;;;;;;;;;;;;;20.22;59.64;100246.19;10332191;28;1957;-69
2023/10/01 23:20:16;;;;;;;;;;;;;;;20.22;59.61;100235.59;10332656;28;1741;-69
2023/10/01 23:25:12;;;;;;;;;;;;;;;20.21;59.48;100234.75;10332462;28;973;-70
2023/10/01 23:30:19;;;;;;;;;;;;;;;20.20;59.52;100235.69;10331121;28;1176;-70
2023/10/01 23:35:37;;;;;;;;;;;;;;;20.19;59.54;100236.59;10331706;28;1985;-69
2023/10/01 23:40:32;;;;;;;;;;;;;;;20.19;59.59;100236.59;10331207;28;1537;-70
2023/10/01 23:45:49;;;;;;;;;;;;;;;20.19;59.55;100241.91;10331100;28;1060;-69
2023/10/01 23:50:46;;;;;;;;;;;;;;;20.17;59.53;100235.81;10330231;28;1606;-69
2023/10/01 23:55:44;;;;;;;;;;;;;;;20.17;59.57;100246.41;10330744;28;1909;-69
